Time;durP1;ratioP1;P1;durP2;ratioP2;P2;SDS_P1;SDS_P2;PMS_P1;PMS_P2;Temp;Humidity;BMP_temperature;BMP_pressure;BME280_temperature;BME280_humidity;BME280_pressure;Samples;Min_cycle;Max_cycle;Signal;HPM_P1;HPM_P2
2021/11/22 00:01:20;;;;;;;27.15;10.60;;;;;;;1.74;100.00;95122.19;5027170;28;20048;-75
2021/11/22 00:03:45;;;;;;;25.95;9.82;;;;;;;1.71;100.00;95117.44;5026847;28;20042;-75
2021/11/22 00:06:11;;;;;;;28.48;10.05;;;;;;;1.70;100.00;95115.88;5027272;28;20620;-75
2021/11/22 00:08:37;;;;;;;24.10;9.65;;;;;;;1.61;100.00;95109.41;5025409;28;20041;-75
2021/11/22 00:11:02;;;;;;;24.40;8.98;;;;;;;1.93;100.00;95106.53;5027568;28;20107;-75
2021/11/22 00:13:28;;;;;;;22.85;9.00;;;;;;;2.07;100.00;95100.13;5027551;28;20049;-74
2021/11/22 00:15:54;;;;;;;24.27;8.90;;;;;;;2.08;100.00;95096.47;5027808;28;20056;-74
2021/11/22 00:18:20;;;;;;;24.05;9.40;;;;;;;1.89;100.00;95104.38;5027445;28;20705;-75
2021/11/22 00:20:46;;;;;;;24.73;9.80;;;;;;;1.91;100.00;95106.72;5024632;28;20044;-75
2021/11/22 00:23:11;;;;;;;26.30;9.73;;;;;;;1.98;100.00;95112.59;5023329;28;20045;-76
2021/11/22 00:25:37;;;;;;;26.05;10.15;;;;;;;1.94;100.00;95116.69;5027505;28;20048;-75
2021/11/22 00:28:03;;;;;;;26.58;10.32;;;;;;;1.91;100.00;95117.13;5026582;28;20045;-74
2021/11/22 00:30:28;;;;;;;29.90;10.25;;;;;;;1.83;100.00;95115.66;5027743;28;20057;-75
2021/11/22 00:32:56;;;;;;;26.58;10.77;;;;;;;1.79;100.00;95124.88;5027066;28;20045;-75
2021/11/22 00:35:30;;;;;;;36.60;11.50;;;;;;;1.66;100.00;95125.09;5027371;28;20053;-75
2021/11/22 00:37:56;;;;;;;27.40;10.80;;;;;;;1.85;100.00;95129.22;5024941;28;21448;-74
2021/11/22 00:40:21;;;;;;;30.95;10.63;;;;;;;1.81;100.00;95120.28;5026596;28;20521;-76
2021/11/22 00:42:49;;;;;;;34.58;11.20;;;;;;;1.68;100.00;95123.06;5027115;28;20120;-74
2021/11/22 00:45:15;;;;;;;30.77;10.48;;;;;;;1.77;100.00;95116.56;5025952;28;20042;-73
2021/11/22 00:47:42;;;;;;;27.38;10.10;;;;;;;1.78;100.00;95112.16;5027704;28;20498;-74
2021/11/22 00:50:08;;;;;;;30.58;10.65;;;;;;;1.42;100.00;95119.84;5026824;28;20072;-74
2021/11/22 00:52:34;;;;;;;27.88;10.15;;;;;;;1.76;100.00;95127.94;5027740;28;20055;-74
2021/11/22 00:55:00;;;;;;;29.50;10.23;;;;;;;1.61;100.00;95138.75;5025983;28;20137;-73
2021/11/22 00:57:25;;;;;;;27.63;10.15;;;;;;;1.45;100.00;95140.16;5026832;28;20132;-73
2021/11/22 00:59:51;;;;;;;30.00;9.93;;;;;;;1.40;100.00;95141.84;5025157;28;20045;-73
2021/11/22 01:02:16;;;;;;;32.03;9.95;;;;;;;1.42;100.00;95145.75;5021530;28;20050;-73
2021/11/22 01:04:42;;;;;;;31.02;9.57;;;;;;;1.47;100.00;95148.50;5026624;28;20069;-74
2021/11/22 01:07:08;;;;;;;25.65;9.50;;;;;;;1.69;100.00;95150.59;5024640;28;20128;-74
2021/11/22 01:09:33;;;;;;;30.55;9.85;;;;;;;1.57;100.00;95137.59;5025246;28;20124;-74
2021/11/22 01:11:59;;;;;;;25.95;8.73;;;;;;;1.64;100.00;95142.66;5024707;28;20041;-74
2021/11/22 01:14:26;;;;;;;30.02;10.10;;;;;;;1.56;100.00;95141.19;5023263;28;20050;-74
2021/11/22 01:16:52;;;;;;;29.48;11.07;;;;;;;1.48;100.00;95144.09;5027163;28;20099;-74
2021/11/22 01:19:18;;;;;;;28.77;9.77;;;;;;;1.53;100.00;95142.41;5026254;28;20069;-74
2021/11/22 01:21:44;;;;;;;27.83;9.55;;;;;;;1.86;100.00;95141.16;5024985;28;20046;-74
2021/11/22 01:24:09;;;;;;;24.80;9.73;;;;;;;1.56;100.00;95141.97;5026789;28;20048;-74
2021/11/22 01:26:35;;;;;;;31.60;9.68;;;;;;;1.63;100.00;95159.28;5026214;28;20041;-74
2021/11/22 01:29:01;;;;;;;30.40;10.05;;;;;;;1.60;100.00;95151.94;5029370;28;20046;-74
2021/11/22 01:31:26;;;;;;;29.70;10.35;;;;;;;1.51;100.00;95160.03;5021909;28;20077;-74
2021/11/22 01:33:52;;;;;;;30.75;9.68;;;;;;;1.40;100.00;95152.97;5018671;28;20048;-74
2021/11/22 01:36:17;;;;;;;30.13;9.27;;;;;;;1.35;100.00;95160.63;5014684;28;20050;-74
2021/11/22 01:38:43;;;;;;;28.20;10.25;;;;;;;1.47;100.00;95158.88;5016450;28;20404;-74
2021/11/22 01:41:09;;;;;;;29.95;10.45;;;;;;;1.45;100.00;95160.91;5030328;28;20057;-74
2021/11/22 01:43:34;;;;;;;29.48;10.95;;;;;;;1.48;100.00;95155.28;5029917;28;20103;-74
2021/11/22 01:46:00;;;;;;;33.25;10.75;;;;;;;1.49;100.00;95150.88;5024477;28;20064;-74
2021/11/22 01:48:26;;;;;;;26.88;10.00;;;;;;;1.53;100.00;95147.59;5030164;28;20089;-74
2021/11/22 01:50:53;;;;;;;29.95;10.10;;;;;;;1.62;100.00;95144.72;5018875;28;20038;-74
2021/11/22 01:53:21;;;;;;;31.58;11.23;;;;;;;1.54;100.00;95153.59;5011264;28;20045;-74
2021/11/22 01:55:47;;;;;;;28.55;10.25;;;;;;;1.55;100.00;95155.97;5028833;28;20041;-74
2021/11/22 01:58:13;;;;;;;27.75;10.73;;;;;;;1.50;100.00;95158.44;5029396;28;20095;-74
2021/11/22 02:00:46;;;;;;;23.17;9.02;;;;;;;1.52;100.00;95161.59;5029782;28;20041;-74
2021/11/22 02:03:15;;;;;;;28.98;10.43;;;;;;;1.63;100.00;95161.88;5029883;28;20049;-74
2021/11/22 02:05:41;;;;;;;23.83;8.70;;;;;;;1.59;100.00;95168.50;5029731;28;20048;-74
2021/11/22 02:08:07;;;;;;;27.77;9.57;;;;;;;1.71;100.00;95164.94;5028777;28;20073;-74
2021/11/22 02:10:33;;;;;;;21.30;8.63;;;;;;;1.81;100.00;95169.59;5012936;28;20085;-74
2021/11/22 02:12:59;;;;;;;22.77;7.88;;;;;;;1.66;100.00;95164.00;5020021;28;20050;-74
2021/11/22 02:15:25;;;;;;;24.92;8.75;;;;;;;1.77;100.00;95168.44;5028098;28;20567;-74
2021/11/22 02:17:53;;;;;;;21.88;9.25;;;;;;;1.65;100.00;95172.78;5029143;28;20053;-74
2021/11/22 02:20:23;;;;;;;26.73;8.70;;;;;;;1.63;100.00;95187.81;5029326;28;20041;-74
2021/11/22 02:22:51;;;;;;;24.85;9.45;;;;;;;1.53;100.00;95189.09;5029755;28;20041;-74
2021/11/22 02:25:19;;;;;;;25.55;9.95;;;;;;;1.47;100.00;95184.03;5028381;28;20049;-74
2021/11/22 02:27:46;;;;;;;26.23;10.05;;;;;;;1.45;100.00;95192.03;5028701;28;20041;-74
2021/11/22 02:30:13;;;;;;;27.45;10.48;;;;;;;1.55;100.00;95176.72;5042539;28;20068;-74
2021/11/22 02:32:41;;;;;;;23.50;9.13;;;;;;;1.58;100.00;95185.06;5043366;28;20495;-74
2021/11/22 02:35:10;;;;;;;23.90;9.57;;;;;;;1.54;100.00;95180.31;5029286;28;20045;-75
2021/11/22 02:37:36;;;;;;;28.95;10.23;;;;;;;1.61;100.00;95185.44;5025309;28;20049;-75
2021/11/22 02:40:04;;;;;;;27.73;10.50;;;;;;;1.64;100.00;95178.97;5028088;28;20582;-74
2021/11/22 02:42:31;;;;;;;21.98;9.80;;;;;;;1.60;100.00;95177.88;5029496;28;20037;-74
2021/11/22 02:44:58;;;;;;;23.77;9.40;;;;;;;1.56;100.00;95183.47;5028197;28;20053;-75
2021/11/22 02:47:24;;;;;;;28.65;10.15;;;;;;;1.68;100.00;95182.72;5029482;28;20069;-75
2021/11/22 02:49:51;;;;;;;23.67;9.68;;;;;;;1.76;100.00;95192.78;5023558;28;20087;-74
2021/11/22 02:52:17;;;;;;;23.83;8.93;;;;;;;1.61;100.00;95185.44;5014220;28;20045;-74
2021/11/22 02:54:43;;;;;;;21.27;8.77;;;;;;;1.57;100.00;95199.84;5024601;28;20041;-74
2021/11/22 02:57:10;;;;;;;25.60;9.80;;;;;;;1.52;100.00;95192.72;5028094;28;20103;-75
2021/11/22 02:59:39;;;;;;;24.13;8.68;;;;;;;1.53;100.00;95193.50;5028964;28;20072;-75
2021/11/22 03:02:10;;;;;;;22.92;8.63;;;;;;;1.62;100.00;95191.41;5029236;28;20049;-75
2021/11/22 03:04:41;;;;;;;24.10;10.10;;;;;;;1.60;100.00;95189.03;5020595;28;20117;-75
2021/11/22 03:07:07;;;;;;;26.98;9.60;;;;;;;1.50;100.00;95199.91;5028176;28;20574;-75
2021/11/22 03:09:34;;;;;;;25.75;9.50;;;;;;;1.55;100.00;95192.28;5027685;28;20309;-74
2021/11/22 03:12:03;;;;;;;23.67;9.88;;;;;;;1.50;100.00;95184.34;5029001;28;20104;-75
2021/11/22 03:14:29;;;;;;;28.77;10.52;;;;;;;1.60;100.00;95203.81;5030582;28;20096;-75
2021/11/22 03:16:55;;;;;;;28.30;10.40;;;;;;;1.68;100.00;95200.88;5027892;28;20041;-75
2021/11/22 03:19:21;;;;;;;24.35;9.63;;;;;;;1.60;100.00;95204.59;5027278;28;20072;-75
2021/11/22 03:21:48;;;;;;;25.38;9.65;;;;;;;1.68;100.00;95206.88;5028560;28;20041;-74
2021/11/22 03:24:14;;;;;;;30.10;10.15;;;;;;;1.64;100.00;95204.94;5026951;28;20045;-75
2021/11/22 03:26:39;;;;;;;27.40;9.50;;;;;;;1.64;100.00;95215.31;5022663;28;20113;-75
2021/11/22 03:29:05;;;;;;;28.30;10.07;;;;;;;1.48;100.00;95212.31;5027850;28;20057;-75
2021/11/22 03:31:32;;;;;;;24.88;9.60;;;;;;;1.74;100.00;95215.59;5022194;28;20745;-75
2021/11/22 03:34:02;;;;;;;24.67;9.45;;;;;;;1.82;100.00;95211.88;5025834;28;20088;-75
2021/11/22 03:36:29;;;;;;;24.40;10.10;;;;;;;1.57;100.00;95210.22;5009431;28;20041;-75
2021/11/22 03:38:55;;;;;;;30.35;10.57;;;;;;;1.52;100.00;95213.47;5022895;28;20132;-75
2021/11/22 03:41:21;;;;;;;23.30;9.82;;;;;;;1.66;100.00;95218.47;5027266;28;20116;-75
2021/11/22 03:43:48;;;;;;;21.42;9.13;;;;;;;1.58;100.00;95221.38;5025248;28;20526;-74
2021/11/22 03:46:17;;;;;;;22.50;9.48;;;;;;;1.53;100.00;95217.63;5022552;28;20135;-74
2021/11/22 03:48:43;;;;;;;29.58;9.95;;;;;;;1.50;100.00;95212.88;5027276;28;20037;-74
2021/11/22 03:51:09;;;;;;;26.35;9.85;;;;;;;1.72;100.00;95222.78;5027683;28;20124;-75
2021/11/22 03:53:34;;;;;;;22.85;8.73;;;;;;;1.87;100.00;95225.78;5026859;28;20037;-74
2021/11/22 03:56:00;;;;;;;26.85;10.55;;;;;;;1.61;100.00;95221.75;5027812;28;20543;-75
2021/11/22 03:58:26;;;;;;;32.40;11.40;;;;;;;1.50;100.00;95231.03;5027529;28;20049;-75
2021/11/22 04:00:51;;;;;;;28.45;10.38;;;;;;;1.42;100.00;95228.75;5027956;28;20049;-75
2021/11/22 04:03:17;;;;;;;29.48;11.50;;;;;;;1.38;100.00;95228.41;5027335;28;20061;-75
2021/11/22 04:05:43;;;;;;;25.92;10.90;;;;;;;1.47;100.00;95226.28;5023140;28;20053;-75
2021/11/22 04:08:08;;;;;;;28.63;10.43;;;;;;;1.55;100.00;95228.59;5025648;28;20060;-75
2021/11/22 04:10:38;;;;;;;29.23;10.93;;;;;;;1.51;100.00;95235.22;5026670;28;20101;-76
2021/11/22 04:13:05;;;;;;;30.13;10.68;;;;;;;1.51;100.00;95237.81;5032956;28;20034;-74
2021/11/22 04:15:31;;;;;;;25.48;9.15;;;;;;;1.45;100.00;95243.06;5018051;28;20086;-75
2021/11/22 04:17:57;;;;;;;23.65;9.63;;;;;;;1.53;100.00;95242.78;5024594;28;20138;-75
2021/11/22 04:20:23;;;;;;;31.05;10.95;;;;;;;1.48;100.00;95247.81;5027606;28;20076;-75
2021/11/22 04:22:48;;;;;;;28.27;10.38;;;;;;;1.49;100.00;95247.59;5021857;28;20041;-75
2021/11/22 04:25:14;;;;;;;30.58;11.13;;;;;;;1.43;100.00;95251.06;5021125;28;20392;-75
2021/11/22 04:27:40;;;;;;;31.70;10.15;;;;;;;1.43;100.00;95251.06;5019718;28;20680;-75
2021/11/22 04:30:08;;;;;;;26.80;9.85;;;;;;;1.43;100.00;95251.06;5027524;28;20045;-75
2021/11/22 04:32:34;;;;;;;26.20;10.75;;;;;;;1.46;100.00;95258.41;5026859;28;20041;-74
2021/11/22 04:35:00;;;;;;;28.33;10.40;;;;;;;1.51;100.00;95268.16;5024195;28;20049;-75
2021/11/22 04:37:28;;;;;;;30.55;10.10;;;;;;;1.52;100.00;95262.75;5026994;28;20045;-75
2021/11/22 04:39:54;;;;;;;25.85;9.98;;;;;;;1.76;100.00;95265.44;5025564;28;20071;-75
2021/11/22 04:42:20;;;;;;;25.90;9.68;;;;;;;1.76;100.00;95270.63;5027628;28;20100;-75
2021/11/22 04:44:46;;;;;;;23.33;9.35;;;;;;;1.80;100.00;95276.19;5024446;28;21313;-75
2021/11/22 04:47:13;;;;;;;27.42;9.98;;;;;;;1.72;100.00;95282.44;5027543;28;20045;-75
2021/11/22 04:49:39;;;;;;;24.55;10.10;;;;;;;1.61;100.00;95290.97;5026393;28;20045;-75
2021/11/22 04:52:07;;;;;;;28.65;10.13;;;;;;;1.52;100.00;95291.28;5026632;28;20050;-75
2021/11/22 04:54:35;;;;;;;25.88;9.82;;;;;;;1.53;100.00;95282.47;5025081;28;20491;-75
2021/11/22 04:57:02;;;;;;;27.58;9.32;;;;;;;1.71;100.00;95293.84;5022633;28;20073;-75
2021/11/22 04:59:28;;;;;;;25.77;9.38;;;;;;;1.68;100.00;95291.69;5027440;28;20105;-75
2021/11/22 05:01:54;;;;;;;25.80;9.88;;;;;;;1.75;100.00;95299.38;5026515;28;20046;-75
2021/11/22 05:04:20;;;;;;;27.58;9.73;;;;;;;1.72;100.00;95292.81;5029650;28;20513;-75
2021/11/22 05:06:45;;;;;;;25.45;9.88;;;;;;;1.62;100.00;95292.56;5029695;28;20034;-75
2021/11/22 05:09:11;;;;;;;28.27;10.20;;;;;;;1.60;100.00;95294.59;5029361;28;20099;-75
2021/11/22 05:11:37;;;;;;;28.08;9.95;;;;;;;1.56;100.00;95292.41;5030125;28;20056;-75
2021/11/22 05:14:02;;;;;;;22.95;9.27;;;;;;;1.61;100.00;95298.75;5029559;28;20038;-75
2021/11/22 05:16:28;;;;;;;29.17;10.05;;;;;;;1.63;100.00;95296.75;5016088;28;20045;-75
2021/11/22 05:18:55;;;;;;;23.77;9.68;;;;;;;1.66;100.00;95291.13;5014013;28;20462;-75
2021/11/22 05:21:21;;;;;;;23.23;8.77;;;;;;;1.67;100.00;95293.50;5031183;28;20061;-75
2021/11/22 05:23:48;;;;;;;25.40;10.30;;;;;;;1.59;100.00;95291.19;5029453;28;20602;-75
2021/11/22 05:26:14;;;;;;;28.20;9.90;;;;;;;1.59;100.00;95300.78;5030592;28;20045;-75
2021/11/22 05:28:40;;;;;;;25.52;10.15;;;;;;;1.63;100.00;95301.94;5030171;28;20045;-74
2021/11/22 05:31:06;;;;;;;29.00;11.30;;;;;;;1.66;100.00;95301.50;5040797;28;20049;-75
2021/11/22 05:33:32;;;;;;;27.60;10.15;;;;;;;1.67;100.00;95298.69;5027889;28;20054;-75
2021/11/22 05:35:57;;;;;;;29.17;10.13;;;;;;;1.64;100.00;95298.31;5029578;28;20041;-75
2021/11/22 05:38:23;;;;;;;27.75;10.90;;;;;;;1.72;100.00;95298.84;5030593;28;20040;-75
2021/11/22 05:40:48;;;;;;;29.83;10.70;;;;;;;1.69;100.00;95306.25;5029321;28;20046;-75
2021/11/22 05:43:14;;;;;;;27.85;10.57;;;;;;;1.69;100.00;95316.63;5030768;28;20042;-75
2021/11/22 05:45:40;;;;;;;34.03;12.02;;;;;;;1.68;100.00;95309.84;5029465;28;20083;-75
2021/11/22 05:48:07;;;;;;;34.30;11.55;;;;;;;1.71;100.00;95319.78;5029465;28;20048;-75
2021/11/22 05:50:34;;;;;;;34.90;11.23;;;;;;;1.66;100.00;95317.84;5029770;28;20049;-75
2021/11/22 05:53:01;;;;;;;29.52;11.88;;;;;;;1.66;100.00;95314.47;5009667;28;20511;-75
2021/11/22 05:55:34;;;;;;;40.30;12.50;;;;;;;1.75;100.00;95326.13;5029133;28;20052;-74
2021/11/22 05:58:02;;;;;;;33.80;12.45;;;;;;;1.73;100.00;95322.97;5029121;28;20119;-74
2021/11/22 06:00:28;;;;;;;33.38;12.90;;;;;;;1.85;100.00;95326.41;5030207;28;20052;-74
2021/11/22 06:02:54;;;;;;;32.55;12.52;;;;;;;1.82;100.00;95326.81;5028761;28;20042;-74
2021/11/22 06:05:19;;;;;;;29.33;12.00;;;;;;;1.82;100.00;95326.81;5029548;28;20068;-74
2021/11/22 06:07:45;;;;;;;34.80;12.82;;;;;;;1.81;100.00;95335.66;5029233;28;20076;-75
2021/11/22 06:10:11;;;;;;;35.47;13.00;;;;;;;1.80;100.00;95344.44;5025405;28;20514;-75
2021/11/22 06:12:36;;;;;;;37.55;13.52;;;;;;;1.82;100.00;95346.81;5028885;28;20049;-75
2021/11/22 06:15:06;;;;;;;35.72;11.93;;;;;;;1.79;100.00;95348.03;5038670;28;20066;-74
2021/11/22 06:17:31;;;;;;;40.97;13.38;;;;;;;1.74;100.00;95345.31;5024089;28;20050;-75
2021/11/22 06:19:57;;;;;;;36.63;12.75;;;;;;;1.76;100.00;95351.06;5029915;28;20068;-74
2021/11/22 06:22:22;;;;;;;39.80;13.05;;;;;;;1.73;100.00;95348.91;5029131;28;20037;-74
2021/11/22 06:24:48;;;;;;;40.40;13.15;;;;;;;1.77;100.00;95355.25;5020995;28;20045;-75
2021/11/22 06:27:14;;;;;;;41.53;13.77;;;;;;;1.77;100.00;95365.63;5028214;28;20510;-75
2021/11/22 06:29:40;;;;;;;34.80;12.93;;;;;;;1.76;100.00;95366.63;5020234;28;20037;-75
2021/11/22 06:32:10;;;;;;;33.88;10.77;;;;;;;1.71;100.00;95369.06;5028998;28;20048;-75
2021/11/22 06:34:38;;;;;;;32.58;11.70;;;;;;;1.76;100.00;95374.41;5020534;28;20064;-75
2021/11/22 06:37:04;;;;;;;36.42;11.32;;;;;;;1.64;100.00;95373.53;5028395;28;20041;-75
2021/11/22 06:39:29;;;;;;;31.08;11.13;;;;;;;1.63;100.00;95374.56;5022355;28;20500;-75
2021/11/22 06:41:55;;;;;;;36.42;12.02;;;;;;;1.62;100.00;95378.16;5028802;28;20043;-75
2021/11/22 06:44:21;;;;;;;32.65;10.77;;;;;;;1.68;100.00;95382.47;5020421;28;20049;-75
2021/11/22 06:46:48;;;;;;;33.00;10.45;;;;;;;1.77;100.00;95391.56;5027545;28;20055;-75
2021/11/22 06:49:19;;;;;;;33.13;10.57;;;;;;;1.69;100.00;95390.03;5028576;28;20499;-75
2021/11/22 06:51:46;;;;;;;32.83;11.05;;;;;;;1.71;100.00;95387.22;5027177;28;20061;-75
2021/11/22 06:54:11;;;;;;;29.73;9.80;;;;;;;1.67;100.00;95392.06;5027820;28;20048;-75
2021/11/22 06:56:37;;;;;;;33.25;9.68;;;;;;;1.84;100.00;95402.66;5028378;28;20060;-75
2021/11/22 06:59:03;;;;;;;25.75;9.30;;;;;;;1.80;100.00;95396.31;5027326;28;20492;-75
2021/11/22 07:01:29;;;;;;;32.22;10.00;;;;;;;1.75;100.00;95397.97;5028637;28;20041;-75
2021/11/22 07:03:55;;;;;;;27.38;9.98;;;;;;;1.78;100.00;95400.94;5026836;28;20124;-75
2021/11/22 07:06:21;;;;;;;29.65;10.60;;;;;;;1.93;100.00;95404.97;5028879;28;20072;-75
2021/11/22 07:08:46;;;;;;;31.58;11.32;;;;;;;1.89;100.00;95410.59;5027116;28;20669;-75
2021/11/22 07:11:12;;;;;;;31.00;10.38;;;;;;;1.79;100.00;95405.09;5028642;28;20423;-75
2021/11/22 07:13:38;;;;;;;34.80;10.70;;;;;;;1.76;100.00;95405.53;5027875;28;20112;-75
2021/11/22 07:16:04;;;;;;;28.02;9.63;;;;;;;1.81;100.00;95410.88;5030209;28;20064;-75
2021/11/22 07:18:31;;;;;;;28.90;10.13;;;;;;;1.98;100.00;95412.91;5027913;28;20502;-75
2021/11/22 07:20:57;;;;;;;30.83;10.20;;;;;;;1.98;100.00;95420.69;5036791;28;20044;-75
2021/11/22 07:23:25;;;;;;;38.78;11.65;;;;;;;1.92;100.00;95424.16;5052830;28;20038;-74
2021/11/22 07:25:56;;;;;;;32.13;10.95;;;;;;;1.87;100.00;95423.00;5054358;28;20056;-75
2021/11/22 07:28:23;;;;;;;33.28;10.38;;;;;;;1.94;100.00;95432.50;5064683;28;20031;-74
2021/11/22 07:30:49;;;;;;;32.35;11.13;;;;;;;1.82;100.00;95441.00;5045865;28;20094;-74
2021/11/22 07:33:15;;;;;;;29.15;10.75;;;;;;;1.89;100.00;95436.53;5052426;28;20052;-74
2021/11/22 07:35:41;;;;;;;28.85;10.40;;;;;;;1.93;100.00;95443.91;5057772;28;20035;-74
2021/11/22 07:38:14;;;;;;;29.85;10.73;;;;;;;1.96;100.00;95451.25;5057489;28;20053;-74
2021/11/22 07:40:39;;;;;;;31.83;11.32;;;;;;;1.94;100.00;95443.69;5054632;28;20133;-71
2021/11/22 07:43:05;;;;;;;30.88;11.30;;;;;;;1.86;100.00;95457.72;5052586;28;20033;-71
2021/11/22 07:45:31;;;;;;;33.72;11.68;;;;;;;1.89;100.00;95457.28;5055507;28;20064;-73
2021/11/22 07:47:57;;;;;;;33.40;11.23;;;;;;;1.98;100.00;95457.03;5058212;28;20025;-75
2021/11/22 07:50:26;;;;;;;32.53;11.57;;;;;;;2.01;100.00;95464.38;5037099;28;20034;-76
2021/11/22 07:52:52;;;;;;;32.95;11.32;;;;;;;1.96;100.00;95467.63;5022500;28;20045;-75
2021/11/22 07:55:20;;;;;;;38.17;12.90;;;;;;;1.97;100.00;95458.84;5040061;28;20047;-74
2021/11/22 07:57:46;;;;;;;36.35;12.35;;;;;;;1.98;100.00;95464.81;5024843;28;20752;-76
2021/11/22 08:00:12;;;;;;;38.20;14.02;;;;;;;2.02;100.00;95465.97;5025393;28;20049;-75
2021/11/22 08:02:38;;;;;;;34.55;12.85;;;;;;;2.07;100.00;95471.31;5025450;28;20041;-74
2021/11/22 08:05:05;;;;;;;37.08;13.05;;;;;;;2.07;100.00;95469.50;5026592;28;20092;-75
2021/11/22 08:07:32;;;;;;;38.55;13.55;;;;;;;2.08;100.00;95471.09;5016286;28;20049;-75
2021/11/22 08:10:00;;;;;;;43.65;14.13;;;;;;;2.06;100.00;95470.50;5026131;28;20092;-75
2021/11/22 08:12:27;;;;;;;37.80;12.73;;;;;;;2.22;100.00;95487.31;5021418;28;20053;-76
2021/11/22 08:15:06;;;;;;;36.70;12.18;;;;;;;2.16;100.00;95482.97;5018956;28;20045;-74
2021/11/22 08:17:32;;;;;;;34.22;13.05;;;;;;;2.09;100.00;95479.66;5023203;28;20052;-76
2021/11/22 08:19:58;;;;;;;40.78;13.77;;;;;;;2.12;100.00;95476.63;5027061;28;20047;-76
2021/11/22 08:22:25;;;;;;;43.58;14.50;;;;;;;2.08;100.00;95486.66;5025461;28;20068;-76
2021/11/22 08:24:53;;;;;;;34.38;12.98;;;;;;;2.17;100.00;95484.56;5022856;28;20109;-75
2021/11/22 08:27:20;;;;;;;36.85;13.15;;;;;;;2.15;100.00;95491.00;5017462;28;20380;-74
2021/11/22 08:29:46;;;;;;;37.80;13.63;;;;;;;2.18;100.00;95491.34;5026068;28;20069;-75
2021/11/22 08:32:12;;;;;;;42.10;14.00;;;;;;;2.15;100.00;95496.97;5026095;28;20041;-74
2021/11/22 08:34:37;;;;;;;37.00;12.85;;;;;;;2.19;100.00;95500.72;5030024;28;20037;-74
2021/11/22 08:37:03;;;;;;;38.58;13.73;;;;;;;2.13;100.00;95509.38;5031749;28;20057;-76
2021/11/22 08:39:29;;;;;;;39.25;13.98;;;;;;;2.12;100.00;95502.59;5032725;28;20049;-77
2021/11/22 08:41:55;;;;;;;44.78;13.27;;;;;;;2.23;100.00;95520.06;5027717;28;20729;-75
2021/11/22 08:44:20;;;;;;;35.90;13.85;;;;;;;2.21;100.00;95511.69;5028362;28;20069;-75
2021/11/22 08:46:47;;;;;;;38.65;13.32;;;;;;;2.13;100.00;95518.97;5025071;28;20063;-74
2021/11/22 08:49:14;;;;;;;37.53;12.88;;;;;;;2.24;100.00;95526.84;5029762;28;20041;-75
2021/11/22 08:51:41;;;;;;;39.67;13.02;;;;;;;2.19;100.00;95529.28;5027587;28;20064;-76
2021/11/22 08:54:07;;;;;;;33.75;12.52;;;;;;;2.16;100.00;95542.69;5026440;28;20704;-73
2021/11/22 08:56:33;;;;;;;35.35;11.98;;;;;;;2.12;100.00;95553.72;5028726;28;20037;-75
2021/11/22 08:58:59;;;;;;;35.70;12.02;;;;;;;2.21;100.00;95542.88;5029936;28;20038;-73
2021/11/22 09:01:26;;;;;;;34.97;12.48;;;;;;;2.07;100.00;95551.78;5031735;28;20045;-74
2021/11/22 09:03:52;;;;;;;37.65;12.10;;;;;;;2.13;100.00;95557.94;5028624;28;20069;-73
2021/11/22 09:06:19;;;;;;;30.35;11.35;;;;;;;2.07;100.00;95562.16;5028331;28;20068;-73
2021/11/22 09:08:45;;;;;;;29.20;11.10;;;;;;;2.13;100.00;95561.31;5029699;28;20038;-73
2021/11/22 09:11:11;;;;;;;29.90;10.73;;;;;;;2.16;100.00;95571.25;5025763;28;20112;-75
2021/11/22 09:13:38;;;;;;;34.22;11.48;;;;;;;2.19;100.00;95576.03;5030112;28;20165;-76
2021/11/22 09:16:04;;;;;;;37.05;10.80;;;;;;;2.18;100.00;95579.63;5030794;28;20093;-76
2021/11/22 09:18:29;;;;;;;29.15;11.23;;;;;;;2.21;100.00;95574.03;5021740;28;20069;-76
2021/11/22 09:20:55;;;;;;;34.40;11.30;;;;;;;2.17;100.00;95582.44;5024645;28;20410;-76
2021/11/22 09:23:21;;;;;;;30.25;10.77;;;;;;;2.24;100.00;95578.78;5029274;28;20093;-76
2021/11/22 09:25:46;;;;;;;29.27;11.13;;;;;;;2.42;100.00;95585.00;5026053;28;20041;-76
2021/11/22 09:28:12;;;;;;;34.58;11.07;;;;;;;2.43;100.00;95576.19;5029452;28;20120;-76
2021/11/22 09:30:38;;;;;;;31.67;10.90;;;;;;;2.29;100.00;95585.13;5027442;28;20052;-76
2021/11/22 09:33:04;;;;;;;26.25;9.90;;;;;;;2.30;100.00;95581.50;5039900;28;20887;-75
2021/11/22 09:35:30;;;;;;;27.42;10.35;;;;;;;2.32;100.00;95584.69;5027754;28;20041;-75
2021/11/22 09:37:56;;;;;;;25.08;9.73;;;;;;;2.34;100.00;95598.25;5025322;28;20041;-76
2021/11/22 09:40:22;;;;;;;28.73;10.07;;;;;;;2.42;100.00;95596.16;5029888;28;20041;-76
2021/11/22 09:42:48;;;;;;;28.40;10.85;;;;;;;2.39;100.00;95598.41;5024862;28;20045;-76
2021/11/22 09:45:16;;;;;;;31.55;10.65;;;;;;;2.50;100.00;95587.31;5028312;28;20404;-76
2021/11/22 09:47:42;;;;;;;29.08;10.30;;;;;;;2.57;100.00;95590.63;5026989;28;20052;-76
2021/11/22 09:50:08;;;;;;;30.02;11.23;;;;;;;2.44;100.00;95593.34;5042222;28;20037;-75
2021/11/22 09:52:35;;;;;;;27.58;9.10;;;;;;;2.32;100.00;95595.09;5026232;28;20440;-76
2021/11/22 09:55:01;;;;;;;27.65;10.40;;;;;;;2.45;100.00;95588.97;5026921;28;20411;-75
2021/11/22 09:57:26;;;;;;;35.65;10.25;;;;;;;2.36;100.00;95601.44;5021897;28;20100;-75
2021/11/22 09:59:52;;;;;;;25.17;9.20;;;;;;;2.38;100.00;95597.59;5028562;28;20542;-75
2021/11/22 10:02:18;;;;;;;28.90;10.05;;;;;;;2.47;100.00;95603.34;5028844;28;20069;-75
2021/11/22 10:04:43;;;;;;;28.55;9.57;;;;;;;2.37;100.00;95597.81;5025432;28;20037;-76
2021/11/22 10:07:10;;;;;;;27.55;9.23;;;;;;;2.44;100.00;95598.53;5026389;28;20600;-75
2021/11/22 10:09:47;;;;;;;25.38;8.93;;;;;;;2.49;100.00;95590.91;5027875;28;20565;-76
2021/11/22 10:12:25;;;;;;;29.65;9.57;;;;;;;2.58;100.00;95592.22;5021978;28;20512;-76
2021/11/22 10:14:52;;;;;;;31.13;9.50;;;;;;;2.63;100.00;95590.75;5022465;28;20121;-75
2021/11/22 10:17:24;;;;;;;32.53;10.32;;;;;;;2.63;100.00;95590.75;5025834;28;20045;-76
2021/11/22 10:20:08;;;;;;;29.70;10.32;;;;;;;2.71;100.00;95587.88;5012399;28;20034;-76
2021/11/22 10:23:02;;;;;;;27.83;10.25;;;;;;;2.81;100.00;95576.97;5026184;28;20038;-76
2021/11/22 10:25:34;;;;;;;29.00;10.88;;;;;;;2.68;100.00;95581.31;5027186;28;20037;-75
2021/11/22 10:28:04;;;;;;;26.90;10.50;;;;;;;2.76;100.00;95588.03;5027605;28;20044;-76
2021/11/22 10:30:33;;;;;;;29.88;11.13;;;;;;;2.70;100.00;95586.28;5028413;28;20772;-76
2021/11/22 10:33:01;;;;;;;28.80;10.70;;;;;;;2.75;100.00;95589.81;5027459;28;20507;-75
2021/11/22 10:35:29;;;;;;;31.02;10.40;;;;;;;2.84;100.00;95590.31;5028595;28;20045;-76
2021/11/22 10:37:59;;;;;;;33.03;11.38;;;;;;;2.74;100.00;95592.66;5018699;28;20503;-76
2021/11/22 10:40:26;;;;;;;29.48;10.75;;;;;;;2.77;100.00;95595.63;5023557;28;20496;-76
2021/11/22 10:42:52;;;;;;;26.35;10.52;;;;;;;2.64;100.00;95589.75;5018843;28;20038;-76
2021/11/22 10:45:39;;;;;;;28.05;10.50;;;;;;;2.65;100.00;95593.97;5021754;28;20046;-76
2021/11/22 10:48:15;;;;;;;27.25;10.60;;;;;;;2.77;100.00;95594.81;5021789;28;20713;-76
2021/11/22 10:50:53;;;;;;;25.45;10.07;;;;;;;2.72;100.00;95594.69;5024491;28;20045;-75
2021/11/22 10:53:56;;;;;;;28.80;10.75;;;;;;;2.62;100.00;95594.41;5023117;28;20088;-75
2021/11/22 10:56:24;;;;;;;33.83;11.35;;;;;;;2.62;100.00;95599.59;5021240;28;20144;-75
2021/11/22 10:58:56;;;;;;;29.33;10.82;;;;;;;2.68;100.00;95601.31;5026228;28;20518;-75
2021/11/22 11:01:21;;;;;;;27.98;11.48;;;;;;;2.67;100.00;95597.94;5027864;28;20045;-75
2021/11/22 11:03:55;;;;;;;34.63;12.82;;;;;;;2.79;100.00;95595.41;5026880;28;20152;-75
2021/11/22 11:06:47;;;;;;;30.65;11.45;;;;;;;2.80;100.00;95589.16;5025841;28;20049;-75
2021/11/22 11:09:28;;;;;;;33.50;12.60;;;;;;;2.94;100.00;95595.81;5021878;28;20455;-76
2021/11/22 11:12:01;;;;;;;31.88;11.63;;;;;;;3.02;100.00;95593.94;5043647;28;20088;-75
2021/11/22 11:14:29;;;;;;;38.20;12.45;;;;;;;3.09;100.00;95600.63;5026157;28;20041;-76
2021/11/22 11:17:09;;;;;;;34.33;12.38;;;;;;;3.06;100.00;95595.06;5028691;28;20041;-75
2021/11/22 11:19:36;;;;;;;32.78;11.68;;;;;;;3.03;100.00;95605.91;5024956;28;20422;-76